createdAt,value
2022-12-24T00:00:12.468Z,19.60
2022-12-24T00:01:10.206Z,19.70
2022-12-24T00:02:06.943Z,18.17
2022-12-24T00:03:03.869Z,22.08
2022-12-24T00:04:00.836Z,22.08
2022-12-24T00:05:01.178Z,21.45
2022-12-24T00:05:58.425Z,20.40
2022-12-24T00:06:55.027Z,20.00
2022-12-24T00:07:51.677Z,18.77
2022-12-24T00:08:49.001Z,20.33
2022-12-24T00:09:45.585Z,20.67
2022-12-24T00:10:42.154Z,21.23
2022-12-24T00:11:38.739Z,20.45
2022-12-24T00:12:35.811Z,17.90
2022-12-24T00:13:32.456Z,18.23
2022-12-24T00:14:29.202Z,20.58
2022-12-24T00:15:25.821Z,23.50
2022-12-24T00:16:22.559Z,23.10
2022-12-24T00:17:19.126Z,29.63
2022-12-24T00:18:16.465Z,22.70
2022-12-24T00:19:13.253Z,20.98
2022-12-24T00:20:10.288Z,25.10
2022-12-24T00:21:07.159Z,25.00
2022-12-24T00:22:03.784Z,23.70
2022-12-24T00:23:00.366Z,19.92
2022-12-24T00:23:57.003Z,20.25
2022-12-24T00:24:53.717Z,20.75
2022-12-24T00:25:50.536Z,15.60
2022-12-24T00:26:47.229Z,20.63
2022-12-24T00:27:43.866Z,20.88
2022-12-24T00:28:40.868Z,20.80
2022-12-24T00:29:37.582Z,20.38
2022-12-24T00:30:34.452Z,20.40
2022-12-24T00:31:31.315Z,20.42
2022-12-24T00:32:27.986Z,21.27
2022-12-24T00:33:24.971Z,18.15
2022-12-24T00:34:24.407Z,17.33
2022-12-24T00:35:21.121Z,18.58
2022-12-24T00:36:18.723Z,17.48
2022-12-24T00:37:15.417Z,16.80
2022-12-24T00:38:12.032Z,17.80
2022-12-24T00:39:08.744Z,16.80
2022-12-24T00:40:05.945Z,16.80
2022-12-24T00:41:04.797Z,17.02
2022-12-24T00:42:01.425Z,17.42
2022-12-24T00:42:58.351Z,16.35
2022-12-24T00:43:59.654Z,15.00
2022-12-24T00:44:56.250Z,17.40
2022-12-24T00:45:52.970Z,17.95
2022-12-24T00:46:49.687Z,16.13
2022-12-24T00:47:46.266Z,15.55
2022-12-24T00:48:42.847Z,15.20
2022-12-24T00:49:39.546Z,14.68
2022-12-24T00:50:36.127Z,15.95
2022-12-24T00:51:33.805Z,17.17
2022-12-24T00:52:30.769Z,19.05
2022-12-24T00:53:27.437Z,20.67
2022-12-24T00:54:24.070Z,25.50
2022-12-24T00:55:20.782Z,25.60
2022-12-24T00:56:17.792Z,34.15
2022-12-24T00:57:14.404Z,36.55
2022-12-24T00:58:12.301Z,33.40
2022-12-24T00:59:08.872Z,31.02
2022-12-24T01:00:06.384Z,35.53
2022-12-24T01:01:03.430Z,41.17
2022-12-24T01:02:00.290Z,37.13
2022-12-24T01:02:57.267Z,35.22
2022-12-24T01:04:14.467Z,34.88
2022-12-24T01:05:12.170Z,35.25
2022-12-24T01:06:13.108Z,41.13
2022-12-24T01:07:09.735Z,43.90
2022-12-24T01:08:06.396Z,42.42
2022-12-24T01:09:03.072Z,37.38
2022-12-24T01:09:59.700Z,41.28
2022-12-24T01:10:56.836Z,39.83
2022-12-24T01:11:53.577Z,35.05
2022-12-24T01:12:50.276Z,40.33
2022-12-24T01:13:46.928Z,39.35
2022-12-24T01:14:43.591Z,33.22
2022-12-24T01:15:40.285Z,37.15
2022-12-24T01:16:36.941Z,40.80
2022-12-24T01:17:34.835Z,41.40
2022-12-24T01:18:31.464Z,39.63
2022-12-24T01:19:28.181Z,38.33
2022-12-24T01:20:27.056Z,38.53
2022-12-24T01:21:23.766Z,38.20
2022-12-24T01:22:20.387Z,34.80
2022-12-24T01:23:16.950Z,34.83
2022-12-24T01:24:15.878Z,32.67
2022-12-24T01:25:12.698Z,29.52
2022-12-24T01:26:12.323Z,27.83
2022-12-24T01:27:09.506Z,27.10
2022-12-24T01:28:06.610Z,27.67
2022-12-24T01:29:04.493Z,25.45
2022-12-24T01:30:01.241Z,23.80
2022-12-24T01:30:57.923Z,22.92
2022-12-24T01:31:54.744Z,25.48
2022-12-24T01:32:51.385Z,22.60
2022-12-24T01:33:49.275Z,19.83
2022-12-24T01:34:45.888Z,41.50
2022-12-24T01:35:43.464Z,54.70
2022-12-24T01:36:40.170Z,30.95
2022-12-24T01:37:36.928Z,19.90
2022-12-24T01:38:33.698Z,27.83
2022-12-24T01:39:30.478Z,36.70
2022-12-24T01:40:45.918Z,24.27
2022-12-24T01:42:01.055Z,23.20
2022-12-24T01:43:16.478Z,24.40
2022-12-24T01:44:27.219Z,22.63
2022-12-24T01:45:40.501Z,20.63
2022-12-24T01:46:37.147Z,19.83
2022-12-24T01:47:33.885Z,24.30
2022-12-24T01:49:04.028Z,26.02
2022-12-24T01:50:12.944Z,26.80
2022-12-24T01:51:27.813Z,35.60
2022-12-24T01:52:28.697Z,30.48
2022-12-24T01:53:26.027Z,32.95
2022-12-24T01:54:26.193Z,27.27
2022-12-24T01:55:23.531Z,31.10
2022-12-24T01:56:21.330Z,35.33
2022-12-24T01:57:21.775Z,30.60
2022-12-24T01:58:20.611Z,30.35
2022-12-24T01:59:19.343Z,32.03
2022-12-24T02:00:16.421Z,35.65
2022-12-24T02:01:13.200Z,32.97
2022-12-24T02:02:10.860Z,33.42
2022-12-24T02:03:07.781Z,34.50
2022-12-24T02:04:13.434Z,39.88
2022-12-24T02:05:22.610Z,36.65
2022-12-24T02:06:20.759Z,40.30
2022-12-24T02:07:17.832Z,39.88
2022-12-24T02:08:15.542Z,43.38
2022-12-24T02:09:12.200Z,41.53
2022-12-24T02:10:12.983Z,47.15
2022-12-24T02:11:19.058Z,69.47
2022-12-24T02:12:15.920Z,61.00
2022-12-24T02:13:14.517Z,106.63
2022-12-24T02:14:12.086Z,114.38
2022-12-24T02:15:12.136Z,88.38
2022-12-24T02:16:30.407Z,105.03
2022-12-24T02:17:36.183Z,59.67
2022-12-24T02:18:44.596Z,53.45
2022-12-24T02:20:04.079Z,52.55
2022-12-24T02:21:22.191Z,62.28
2022-12-24T02:22:42.342Z,46.55
2022-12-24T02:24:02.776Z,41.53
2022-12-24T02:25:18.101Z,41.50
2022-12-24T02:26:32.855Z,40.53
2022-12-24T02:27:55.176Z,35.97
2022-12-24T02:29:06.719Z,38.72
2022-12-24T02:30:12.418Z,38.40
2022-12-24T02:31:16.619Z,35.80
2022-12-24T02:32:27.334Z,39.40
2022-12-24T02:33:35.923Z,39.70
2022-12-24T02:35:09.957Z,36.13
2022-12-24T02:36:13.591Z,41.15
2022-12-24T02:37:23.035Z,41.38
2022-12-24T02:38:19.676Z,33.63
2022-12-24T02:39:23.834Z,56.80
2022-12-24T02:40:31.626Z,48.63
2022-12-24T02:42:08.323Z,40.72
2022-12-24T02:43:15.113Z,38.40
2022-12-24T02:44:11.827Z,28.35
2022-12-24T02:45:13.379Z,33.05
2022-12-24T02:46:31.916Z,36.10
2022-12-24T02:47:34.164Z,33.35
2022-12-24T02:49:28.605Z,35.63
2022-12-24T02:50:25.443Z,36.53
2022-12-24T02:51:25.010Z,33.58
2022-12-24T02:52:38.043Z,39.33
2022-12-24T02:54:32.693Z,43.10
2022-12-24T02:56:01.460Z,46.95
2022-12-24T02:57:45.967Z,51.60
2022-12-24T02:59:01.221Z,46.22
2022-12-24T03:00:01.630Z,45.83
2022-12-24T03:01:22.621Z,45.80
2022-12-24T03:03:07.748Z,44.20
2022-12-24T03:04:41.395Z,44.58
2022-12-24T03:05:50.321Z,45.45
2022-12-24T03:07:06.769Z,44.92
2022-12-24T03:08:15.442Z,41.83
2022-12-24T03:09:26.588Z,42.58
2022-12-24T03:10:52.739Z,41.83
2022-12-24T03:11:57.739Z,43.30
2022-12-24T03:13:00.429Z,41.42
2022-12-24T03:13:59.633Z,41.78
2022-12-24T03:14:57.130Z,38.30
2022-12-24T03:15:54.529Z,39.50
2022-12-24T03:16:51.396Z,41.80
2022-12-24T03:17:50.102Z,41.92
2022-12-24T03:18:49.552Z,33.88
2022-12-24T03:19:47.989Z,40.65
2022-12-24T03:20:51.289Z,42.53
2022-12-24T03:21:49.559Z,40.53
2022-12-24T03:22:46.499Z,40.42
2022-12-24T03:23:43.217Z,41.80
2022-12-24T03:24:39.951Z,39.20
2022-12-24T03:25:40.815Z,40.20
2022-12-24T03:26:39.195Z,35.70
2022-12-24T03:27:36.504Z,30.05
2022-12-24T03:28:33.756Z,27.48
2022-12-24T03:29:30.391Z,31.25
2022-12-24T03:30:27.202Z,32.25
2022-12-24T03:31:24.374Z,30.00
2022-12-24T03:32:28.487Z,29.30
2022-12-24T03:33:25.083Z,25.45
2022-12-24T03:34:21.679Z,29.77
2022-12-24T03:35:18.498Z,30.77
2022-12-24T03:36:15.161Z,29.65
2022-12-24T03:37:11.724Z,27.45
2022-12-24T03:38:08.324Z,28.45
2022-12-24T03:39:05.765Z,24.23
2022-12-24T03:40:02.590Z,18.98
2022-12-24T03:40:59.960Z,20.50
2022-12-24T03:41:56.696Z,18.70
2022-12-24T03:42:53.572Z,15.02
2022-12-24T03:43:50.231Z,14.05
2022-12-24T03:44:46.921Z,13.20
2022-12-24T03:45:43.729Z,14.38
2022-12-24T03:46:40.539Z,11.85
2022-12-24T03:47:37.209Z,11.63
2022-12-24T03:48:35.548Z,9.73
2022-12-24T03:49:32.205Z,10.23
2022-12-24T03:50:28.977Z,9.90
2022-12-24T03:51:26.773Z,9.90
2022-12-24T03:52:23.399Z,11.77
2022-12-24T03:53:19.985Z,15.85
2022-12-24T03:54:16.635Z,12.90
2022-12-24T03:55:13.496Z,16.45
2022-12-24T03:56:10.105Z,17.55
2022-12-24T03:57:06.758Z,26.63
2022-12-24T03:58:03.374Z,25.58
2022-12-24T03:58:59.924Z,21.60
2022-12-24T03:59:56.561Z,24.40
2022-12-24T04:00:54.286Z,27.60
2022-12-24T04:01:51.116Z,28.77
2022-12-24T04:02:48.005Z,26.17
2022-12-24T04:03:45.177Z,22.95
2022-12-24T04:04:41.980Z,23.52
2022-12-24T04:05:38.603Z,23.92
2022-12-24T04:06:35.305Z,28.40
2022-12-24T04:07:33.082Z,26.48
2022-12-24T04:08:29.733Z,32.58
2022-12-24T04:09:26.380Z,35.95
2022-12-24T04:10:22.915Z,34.90
2022-12-24T04:11:19.548Z,31.95
2022-12-24T04:12:16.170Z,33.13
2022-12-24T04:13:12.752Z,29.85
2022-12-24T04:14:09.369Z,25.40
2022-12-24T04:15:06.608Z,22.65
2022-12-24T04:16:08.653Z,34.30
2022-12-24T04:17:05.447Z,32.72
2022-12-24T04:18:02.147Z,34.22
2022-12-24T04:18:58.714Z,39.17
2022-12-24T04:19:56.034Z,33.97
2022-12-24T04:20:53.308Z,28.13
2022-12-24T04:21:49.974Z,27.08
2022-12-24T04:22:46.724Z,29.75
2022-12-24T04:23:43.893Z,42.58
2022-12-24T04:24:40.555Z,39.47
2022-12-24T04:25:37.323Z,43.88
2022-12-24T04:26:34.109Z,50.22
2022-12-24T04:27:31.308Z,43.15
2022-12-24T04:28:29.915Z,37.40
2022-12-24T04:29:26.710Z,43.63
2022-12-24T04:30:23.318Z,42.85
2022-12-24T04:31:20.231Z,36.67
2022-12-24T04:32:17.031Z,39.63
2022-12-24T04:33:13.811Z,42.67
2022-12-24T04:34:10.545Z,32.20
2022-12-24T04:35:07.498Z,36.47
2022-12-24T04:36:06.754Z,32.58
2022-12-24T04:37:03.999Z,30.83
2022-12-24T04:38:00.621Z,32.15
2022-12-24T04:38:57.297Z,29.55
2022-12-24T04:39:54.087Z,33.63
2022-12-24T04:41:08.754Z,33.40
2022-12-24T04:42:05.487Z,36.05
2022-12-24T04:43:05.448Z,32.53
2022-12-24T04:44:02.211Z,27.77
2022-12-24T04:44:58.846Z,25.08
2022-12-24T04:45:55.842Z,26.80
2022-12-24T04:46:52.536Z,26.55
2022-12-24T04:47:49.233Z,27.15
2022-12-24T04:48:48.178Z,26.85
2022-12-24T04:49:44.776Z,29.23
2022-12-24T04:50:41.378Z,27.13
2022-12-24T04:51:38.133Z,35.00
2022-12-24T04:52:35.079Z,34.60
2022-12-24T04:53:32.279Z,34.55
2022-12-24T04:54:28.942Z,26.00
2022-12-24T04:55:25.512Z,34.38
2022-12-24T04:56:24.929Z,27.23
2022-12-24T04:57:21.561Z,29.33
2022-12-24T04:58:18.175Z,28.45
2022-12-24T04:59:14.820Z,35.60
2022-12-24T05:00:12.049Z,34.58
2022-12-24T05:01:13.521Z,45.97
2022-12-24T05:02:10.398Z,36.70
2022-12-24T05:03:07.256Z,35.90
2022-12-24T05:04:03.955Z,37.05
2022-12-24T05:05:00.580Z,41.10
2022-12-24T05:06:05.316Z,42.10
2022-12-24T05:07:01.943Z,42.75
2022-12-24T05:07:58.555Z,41.72
2022-12-24T05:08:56.750Z,36.83
2022-12-24T05:09:53.384Z,36.30
2022-12-24T05:10:57.574Z,43.50
2022-12-24T05:11:54.220Z,46.67
2022-12-24T05:12:50.845Z,44.75
2022-12-24T05:13:48.257Z,48.80
2022-12-24T05:14:44.953Z,40.20
2022-12-24T05:15:41.707Z,33.88
2022-12-24T05:16:38.904Z,41.63
2022-12-24T05:17:35.567Z,45.25
2022-12-24T05:18:32.264Z,43.17
2022-12-24T05:19:28.963Z,38.50
2022-12-24T05:20:25.553Z,42.28
2022-12-24T05:21:23.932Z,39.35
2022-12-24T05:22:39.095Z,34.47
2022-12-24T05:23:55.558Z,30.13
2022-12-24T05:25:15.204Z,26.42
2022-12-24T05:26:26.601Z,22.13
2022-12-24T05:27:23.294Z,14.93
2022-12-24T05:28:19.917Z,12.82
2022-12-24T05:29:16.621Z,8.68
2022-12-24T05:30:13.411Z,11.52
2022-12-24T05:31:10.104Z,8.95
2022-12-24T05:32:06.725Z,9.95
2022-12-24T05:33:03.523Z,9.25
2022-12-24T05:34:01.502Z,10.05
2022-12-24T05:34:58.164Z,9.10
2022-12-24T05:35:54.812Z,11.60
2022-12-24T05:36:51.454Z,10.98
2022-12-24T05:37:48.100Z,9.48
2022-12-24T05:38:44.661Z,8.73
2022-12-24T05:39:41.247Z,9.35
2022-12-24T05:40:37.813Z,9.45
2022-12-24T05:41:34.362Z,7.63
2022-12-24T05:42:31.062Z,8.50
2022-12-24T05:43:27.761Z,10.50
2022-12-24T05:44:24.367Z,10.85
2022-12-24T05:45:21.070Z,10.85
2022-12-24T05:46:20.259Z,39.35
2022-12-24T05:47:16.911Z,28.95
2022-12-24T05:48:13.525Z,19.85
2022-12-24T05:49:10.436Z,11.93
2022-12-24T05:50:07.625Z,27.33
2022-12-24T05:51:08.870Z,18.63
2022-12-24T05:52:05.572Z,21.40
2022-12-24T05:53:02.166Z,29.88
2022-12-24T05:53:58.786Z,15.02
2022-12-24T05:54:55.392Z,41.58
2022-12-24T05:55:51.944Z,21.27
2022-12-24T05:56:48.525Z,26.83
2022-12-24T05:57:45.148Z,11.88
2022-12-24T05:58:42.759Z,9.35
2022-12-24T05:59:39.343Z,8.48
2022-12-24T06:00:35.964Z,10.88
2022-12-24T06:01:32.634Z,15.05
2022-12-24T06:02:29.343Z,11.35
2022-12-24T06:03:25.976Z,12.90
2022-12-24T06:04:28.426Z,9.95
2022-12-24T06:05:25.640Z,9.38
2022-12-24T06:06:24.718Z,7.32
2022-12-24T06:07:21.570Z,6.72
2022-12-24T06:08:18.348Z,6.50
2022-12-24T06:09:15.300Z,5.82
2022-12-24T06:10:11.910Z,7.22
2022-12-24T06:11:12.009Z,9.00
2022-12-24T06:12:08.649Z,7.93
2022-12-24T06:13:05.242Z,12.75
2022-12-24T06:14:01.866Z,10.25
2022-12-24T06:14:58.411Z,10.65
2022-12-24T06:15:59.968Z,8.88
2022-12-24T06:16:56.560Z,8.50
2022-12-24T06:17:53.135Z,8.82
2022-12-24T06:18:50.108Z,9.68
2022-12-24T06:19:46.723Z,10.15
2022-12-24T06:20:43.353Z,9.73
2022-12-24T06:21:40.011Z,12.23
2022-12-24T06:22:36.615Z,14.80
2022-12-24T06:23:35.258Z,18.50
2022-12-24T06:24:31.933Z,14.98
2022-12-24T06:25:28.513Z,15.13
2022-12-24T06:26:25.087Z,16.58
2022-12-24T06:27:21.773Z,14.48
2022-12-24T06:28:18.838Z,13.90
2022-12-24T06:29:15.478Z,11.85
2022-12-24T06:30:12.311Z,12.98
2022-12-24T06:31:13.136Z,13.18
2022-12-24T06:32:09.781Z,13.25
2022-12-24T06:33:06.418Z,14.65
2022-12-24T06:34:08.470Z,15.10
2022-12-24T06:35:05.283Z,17.80
2022-12-24T06:36:04.377Z,15.98
2022-12-24T06:37:01.000Z,15.90
2022-12-24T06:37:57.656Z,15.23
2022-12-24T06:38:55.470Z,16.42
2022-12-24T06:39:52.046Z,13.98
2022-12-24T06:40:48.863Z,8.95
2022-12-24T06:41:45.509Z,8.48
2022-12-24T06:42:42.123Z,6.15
2022-12-24T06:43:38.775Z,6.20
2022-12-24T06:44:35.579Z,6.07
2022-12-24T06:45:32.294Z,6.10
2022-12-24T06:46:29.087Z,8.05
2022-12-24T06:47:25.861Z,6.18
2022-12-24T06:48:22.612Z,8.40
2022-12-24T06:49:19.203Z,9.65
2022-12-24T06:50:16.230Z,9.77
2022-12-24T06:51:14.564Z,7.55
2022-12-24T06:52:11.163Z,7.60
2022-12-24T06:53:08.303Z,5.85
2022-12-24T06:54:04.974Z,5.07
2022-12-24T06:55:01.785Z,6.28
2022-12-24T06:56:06.182Z,7.82
2022-12-24T06:57:02.825Z,9.18
2022-12-24T06:57:59.463Z,10.75
2022-12-24T06:59:01.551Z,13.05
2022-12-24T07:00:01.622Z,14.02
2022-12-24T07:00:58.195Z,17.90
2022-12-24T07:01:54.884Z,22.25
2022-12-24T07:02:51.744Z,20.70
2022-12-24T07:03:48.628Z,22.15
2022-12-24T07:04:45.322Z,22.60
2022-12-24T07:05:42.368Z,23.30
2022-12-24T07:06:39.022Z,24.17
2022-12-24T07:07:39.218Z,25.17
2022-12-24T07:08:36.468Z,25.20
2022-12-24T07:09:33.204Z,25.40
2022-12-24T07:10:29.927Z,30.27
2022-12-24T07:11:26.841Z,30.58
2022-12-24T07:12:23.510Z,33.65
2022-12-24T07:13:20.161Z,24.08
2022-12-24T07:14:16.714Z,26.90
2022-12-24T07:15:15.048Z,30.60
2022-12-24T07:16:11.746Z,28.55
2022-12-24T07:17:08.632Z,28.42
2022-12-24T07:18:05.354Z,30.15
2022-12-24T07:19:04.036Z,29.75
2022-12-24T07:20:00.675Z,27.17
2022-12-24T07:20:58.176Z,29.02
2022-12-24T07:21:54.728Z,25.73
2022-12-24T07:22:51.307Z,25.52
2022-12-24T07:23:47.925Z,28.98
2022-12-24T07:24:44.501Z,26.65
2022-12-24T07:25:43.048Z,28.58
2022-12-24T07:26:39.718Z,24.65
2022-12-24T07:27:37.007Z,26.67
2022-12-24T07:28:34.018Z,27.23
2022-12-24T07:29:30.703Z,28.23
2022-12-24T07:30:27.372Z,24.88
2022-12-24T07:31:23.979Z,24.10
2022-12-24T07:32:20.845Z,27.83
2022-12-24T07:33:17.437Z,27.70
2022-12-24T07:34:14.068Z,26.15
2022-12-24T07:35:10.768Z,27.38
2022-12-24T07:36:10.659Z,27.77
2022-12-24T07:37:07.884Z,25.33
2022-12-24T07:38:04.483Z,27.33
2022-12-24T07:39:01.114Z,26.25
2022-12-24T07:39:57.762Z,25.10
2022-12-24T07:40:54.741Z,27.08
2022-12-24T07:41:51.445Z,28.73
2022-12-24T07:42:48.002Z,28.73
2022-12-24T07:43:44.785Z,28.95
2022-12-24T07:44:41.429Z,30.58
2022-12-24T07:45:39.523Z,32.90
2022-12-24T07:46:36.195Z,32.15
2022-12-24T07:47:33.051Z,34.83
2022-12-24T07:48:30.964Z,34.72
2022-12-24T07:49:27.692Z,37.03
2022-12-24T07:50:24.384Z,33.20
2022-12-24T07:51:21.043Z,41.65
2022-12-24T07:52:17.674Z,40.33
2022-12-24T07:53:14.236Z,41.85
2022-12-24T07:54:10.964Z,44.70
2022-12-24T07:55:07.888Z,47.92
2022-12-24T07:56:10.470Z,51.78
2022-12-24T07:57:09.267Z,55.70
2022-12-24T07:58:05.984Z,54.75
2022-12-24T07:59:02.579Z,62.85
2022-12-24T07:59:59.259Z,65.28
2022-12-24T08:00:58.155Z,65.47
2022-12-24T08:01:54.867Z,66.93
2022-12-24T08:02:51.775Z,65.80
2022-12-24T08:03:48.622Z,66.38
2022-12-24T08:04:45.435Z,64.85
2022-12-24T08:05:42.083Z,64.47
2022-12-24T08:06:39.342Z,63.88
2022-12-24T08:07:35.954Z,62.28
2022-12-24T08:08:32.525Z,64.20
2022-12-24T08:09:35.359Z,67.80
2022-12-24T08:10:31.921Z,68.00
2022-12-24T08:11:28.635Z,69.18
2022-12-24T08:12:25.364Z,75.03
2022-12-24T08:13:21.973Z,76.93
2022-12-24T08:14:18.624Z,77.80
2022-12-24T08:15:15.320Z,79.95
2022-12-24T08:16:12.233Z,73.15
2022-12-24T08:17:09.017Z,76.38
2022-12-24T08:18:05.754Z,74.47
2022-12-24T08:19:02.407Z,74.03
2022-12-24T08:19:59.072Z,85.22
2022-12-24T08:20:55.668Z,81.65
2022-12-24T08:21:52.255Z,81.63
2022-12-24T08:22:48.853Z,87.40
2022-12-24T08:23:47.270Z,93.00
2022-12-24T08:24:43.943Z,91.40
2022-12-24T08:25:45.412Z,89.35
2022-12-24T08:26:42.285Z,79.85
2022-12-24T08:27:39.101Z,72.43
2022-12-24T08:28:36.563Z,55.58
2022-12-24T08:29:33.202Z,54.33
2022-12-24T08:30:30.225Z,69.32
2022-12-24T08:31:26.990Z,55.85
2022-12-24T08:32:23.754Z,67.18
2022-12-24T08:33:20.895Z,65.95
2022-12-24T08:34:17.453Z,78.30
2022-12-24T08:35:14.212Z,76.63
2022-12-24T08:36:10.862Z,79.10
2022-12-24T08:37:07.439Z,77.22
2022-12-24T08:38:04.128Z,79.68
2022-12-24T08:39:03.935Z,80.15
2022-12-24T08:40:00.588Z,79.63
2022-12-24T08:40:57.298Z,81.53
2022-12-24T08:41:54.021Z,81.05
2022-12-24T08:42:50.807Z,79.72
2022-12-24T08:43:47.427Z,79.82
2022-12-24T08:44:44.297Z,72.32
2022-12-24T08:45:41.327Z,75.78
2022-12-24T08:46:38.017Z,71.20
2022-12-24T08:47:34.704Z,65.43
2022-12-24T08:48:32.974Z,71.65
2022-12-24T08:49:29.579Z,64.90
2022-12-24T08:50:28.467Z,64.32
2022-12-24T08:51:25.133Z,74.18
2022-12-24T08:52:21.731Z,73.65
2022-12-24T08:53:18.356Z,67.90
2022-12-24T08:54:15.031Z,75.60
2022-12-24T08:55:11.686Z,72.40
2022-12-24T08:56:10.387Z,67.72
2022-12-24T08:57:07.006Z,69.43
2022-12-24T08:58:03.693Z,70.65
2022-12-24T08:59:01.341Z,70.90
2022-12-24T08:59:57.902Z,75.82
2022-12-24T09:00:54.451Z,70.47
2022-12-24T09:01:51.222Z,75.25
2022-12-24T09:02:48.175Z,76.18
2022-12-24T09:03:45.100Z,74.28
2022-12-24T09:04:41.962Z,75.47
2022-12-24T09:05:40.260Z,73.18
2022-12-24T09:06:36.903Z,71.78
2022-12-24T09:07:33.594Z,74.63
2022-12-24T09:08:30.173Z,71.65
2022-12-24T09:09:34.114Z,67.95
2022-12-24T09:10:34.338Z,71.10
2022-12-24T09:11:31.822Z,66.28
2022-12-24T09:12:29.043Z,67.43
2022-12-24T09:13:25.653Z,65.82
2022-12-24T09:14:22.338Z,65.95
2022-12-24T09:15:19.590Z,64.40
2022-12-24T09:16:16.380Z,64.65
2022-12-24T09:17:13.073Z,64.35
2022-12-24T09:18:10.698Z,67.82
2022-12-24T09:19:07.392Z,63.03
2022-12-24T09:20:07.029Z,61.90
2022-12-24T09:21:08.134Z,60.35
2022-12-24T09:22:04.977Z,65.40
2022-12-24T09:23:01.671Z,59.38
2022-12-24T09:24:00.441Z,57.15
2022-12-24T09:24:57.169Z,51.17
2022-12-24T09:25:53.799Z,57.65
2022-12-24T09:26:57.344Z,56.33
2022-12-24T09:27:54.439Z,54.95
2022-12-24T09:28:52.698Z,52.42
2022-12-24T09:29:49.315Z,53.72
2022-12-24T09:30:45.883Z,54.53
2022-12-24T09:31:43.393Z,55.97
2022-12-24T09:32:40.153Z,53.60
2022-12-24T09:33:39.042Z,52.83
2022-12-24T09:34:35.712Z,53.58
2022-12-24T09:35:32.382Z,54.60
2022-12-24T09:36:28.945Z,52.20
2022-12-24T09:37:25.751Z,53.67
2022-12-24T09:38:22.461Z,54.85
2022-12-24T09:39:19.064Z,48.85
2022-12-24T09:40:26.008Z,51.22
2022-12-24T09:41:29.569Z,53.97
2022-12-24T09:42:41.174Z,51.40
2022-12-24T09:43:38.077Z,55.28
2022-12-24T09:44:49.409Z,56.78
2022-12-24T09:46:13.775Z,53.33
2022-12-24T09:47:22.601Z,52.00
2022-12-24T09:48:24.306Z,51.95
2022-12-24T09:49:31.911Z,47.65
2022-12-24T09:50:53.261Z,54.97
2022-12-24T09:51:55.551Z,51.05
2022-12-24T09:52:52.588Z,54.28
2022-12-24T09:53:56.864Z,53.60
2022-12-24T09:55:08.350Z,44.45
2022-12-24T09:56:12.144Z,48.85
2022-12-24T09:57:21.986Z,48.40
2022-12-24T09:58:35.422Z,49.13
2022-12-24T09:59:52.426Z,40.30
2022-12-24T10:00:50.511Z,48.80
2022-12-24T10:01:49.499Z,45.08
2022-12-24T10:02:46.601Z,42.25
2022-12-24T10:03:44.083Z,47.55
2022-12-24T10:04:42.864Z,40.25
2022-12-24T10:05:51.500Z,42.95
2022-12-24T10:06:59.204Z,48.05
2022-12-24T10:08:08.756Z,47.83
2022-12-24T10:09:29.795Z,45.00
2022-12-24T10:10:43.017Z,43.28
2022-12-24T10:11:46.402Z,41.40
2022-12-24T10:12:58.410Z,44.42
2022-12-24T10:14:27.153Z,39.38
2022-12-24T10:15:42.524Z,44.85
2022-12-24T10:17:14.315Z,44.80
2022-12-24T10:18:26.236Z,42.17
2022-12-24T10:19:33.803Z,42.65
2022-12-24T10:20:42.180Z,42.38
2022-12-24T10:22:07.977Z,42.22
2022-12-24T10:23:46.560Z,39.83
2022-12-24T10:24:56.441Z,38.33
2022-12-24T10:26:08.277Z,37.97
2022-12-24T10:27:15.099Z,36.95
2022-12-24T10:28:18.291Z,35.03
2022-12-24T10:29:28.192Z,36.70
2022-12-24T10:30:25.313Z,29.52
2022-12-24T10:31:41.632Z,28.02
2022-12-24T10:32:39.026Z,26.52
2022-12-24T10:33:43.051Z,24.10
2022-12-24T10:34:53.609Z,24.20
2022-12-24T10:35:55.050Z,18.55
2022-12-24T10:36:52.003Z,11.38
2022-12-24T10:37:51.081Z,13.27
2022-12-24T10:38:47.816Z,11.38
2022-12-24T10:39:44.627Z,11.18
2022-12-24T10:40:44.952Z,12.50
2022-12-24T10:41:41.817Z,17.92
2022-12-24T10:42:50.890Z,22.55
2022-12-24T10:43:48.964Z,25.67
2022-12-24T10:44:50.744Z,29.73
2022-12-24T10:45:55.692Z,30.38
2022-12-24T10:46:52.300Z,30.60
2022-12-24T10:47:54.775Z,25.90
2022-12-24T10:50:14.013Z,21.48
2022-12-24T10:51:40.469Z,29.23
2022-12-24T10:52:40.580Z,31.65
2022-12-24T10:53:43.138Z,32.47
2022-12-24T10:55:11.447Z,32.50
2022-12-24T10:56:10.662Z,31.02
2022-12-24T10:57:25.467Z,31.63
2022-12-24T10:58:22.190Z,31.30
2022-12-24T10:59:29.375Z,30.20
2022-12-24T11:00:30.237Z,33.75
2022-12-24T11:01:45.510Z,33.70
2022-12-24T11:02:42.335Z,33.15
2022-12-24T11:03:39.953Z,33.72
2022-12-24T11:04:51.941Z,34.60
2022-12-24T11:06:14.043Z,34.92
2022-12-24T11:07:19.835Z,34.42
2022-12-24T11:08:20.296Z,36.70
2022-12-24T11:09:36.555Z,36.22
2022-12-24T11:10:36.813Z,35.72
2022-12-24T11:11:35.544Z,36.60
2022-12-24T11:12:40.236Z,38.45
2022-12-24T11:13:52.231Z,36.45
2022-12-24T11:14:59.070Z,37.50
2022-12-24T11:16:16.469Z,39.95
2022-12-24T11:17:23.794Z,40.67
2022-12-24T11:18:20.486Z,36.35
2022-12-24T11:19:20.683Z,40.10
2022-12-24T11:20:26.422Z,40.10
2022-12-24T11:21:26.296Z,39.30
2022-12-24T11:22:30.753Z,37.45
2022-12-24T11:23:29.165Z,40.30
2022-12-24T11:24:34.932Z,40.50
2022-12-24T11:25:40.206Z,40.38
2022-12-24T11:26:36.846Z,42.25
2022-12-24T11:27:39.186Z,39.05
2022-12-24T11:28:37.342Z,40.10
2022-12-24T11:29:34.033Z,40.75
2022-12-24T11:30:32.209Z,41.80
2022-12-24T11:31:29.489Z,41.05
2022-12-24T11:32:26.171Z,41.55
2022-12-24T11:33:23.266Z,41.70
2022-12-24T11:34:30.611Z,39.65
2022-12-24T11:35:29.558Z,40.83
2022-12-24T11:36:27.716Z,37.25
2022-12-24T11:37:25.181Z,39.80
2022-12-24T11:38:25.192Z,40.92
2022-12-24T11:39:24.807Z,43.17
2022-12-24T11:40:23.998Z,44.42
2022-12-24T11:41:20.875Z,42.90
2022-12-24T11:42:32.839Z,42.72
2022-12-24T11:43:44.673Z,41.72
2022-12-24T11:44:49.050Z,39.10
2022-12-24T11:45:51.848Z,41.45
2022-12-24T11:46:52.483Z,39.45
2022-12-24T11:47:49.426Z,40.45
2022-12-24T11:48:46.719Z,40.78
2022-12-24T11:49:43.392Z,40.50
2022-12-24T11:50:40.006Z,40.15
2022-12-24T11:51:36.608Z,39.03
2022-12-24T11:52:33.477Z,39.63
2022-12-24T11:53:38.845Z,40.25
2022-12-24T11:54:48.647Z,40.92
2022-12-24T11:55:49.612Z,40.95
2022-12-24T11:56:50.052Z,40.67
2022-12-24T11:57:59.444Z,40.47
2022-12-24T11:59:02.427Z,40.60
2022-12-24T11:59:59.229Z,41.70
2022-12-24T12:01:25.271Z,39.60
2022-12-24T12:02:28.353Z,40.05
2022-12-24T12:03:32.580Z,41.33
2022-12-24T12:04:33.161Z,38.05
2022-12-24T12:05:35.203Z,41.15
2022-12-24T12:06:42.042Z,39.22
2022-12-24T12:07:39.232Z,40.40
2022-12-24T12:08:37.788Z,36.42
2022-12-24T12:09:40.735Z,38.45
2022-12-24T12:10:41.223Z,42.28
2022-12-24T12:11:40.864Z,40.45
2022-12-24T12:12:51.047Z,42.67
2022-12-24T12:13:48.248Z,42.88
2022-12-24T12:14:55.869Z,40.72
2022-12-24T12:16:26.395Z,43.95
2022-12-24T12:17:42.038Z,40.03
2022-12-24T12:18:42.164Z,40.67
2022-12-24T12:19:48.702Z,38.67
2022-12-24T12:20:53.102Z,39.95
2022-12-24T12:21:50.112Z,40.17
2022-12-24T12:23:01.653Z,40.65
2022-12-24T12:24:13.114Z,38.40
2022-12-24T12:25:21.825Z,40.97
2022-12-24T12:26:28.418Z,40.58
2022-12-24T12:27:46.615Z,39.25
2022-12-24T12:28:49.500Z,36.63
2022-12-24T12:29:52.479Z,39.97
2022-12-24T12:31:02.222Z,39.72
2022-12-24T12:32:06.636Z,40.47
2022-12-24T12:33:20.576Z,37.78
2022-12-24T12:34:26.800Z,41.50
2022-12-24T12:35:28.351Z,41.95
2022-12-24T12:36:31.471Z,36.50
2022-12-24T12:37:37.017Z,39.50
2022-12-24T12:38:33.863Z,40.38
2022-12-24T12:39:31.809Z,38.20
2022-12-24T12:40:50.595Z,33.47
2022-12-24T12:42:15.257Z,28.75
2022-12-24T12:43:47.704Z,32.90
2022-12-24T12:44:56.237Z,21.38
2022-12-24T12:46:21.357Z,27.20
2022-12-24T12:47:36.951Z,23.15
2022-12-24T12:49:09.774Z,31.05
2022-12-24T12:50:18.293Z,30.17
2022-12-24T12:51:24.516Z,23.10
2022-12-24T12:52:50.504Z,18.05
2022-12-24T12:54:31.824Z,15.50
2022-12-24T12:55:46.269Z,16.27
2022-12-24T12:56:49.016Z,14.02
2022-12-24T12:57:47.487Z,15.77
2022-12-24T12:58:51.302Z,13.98
2022-12-24T13:00:05.290Z,14.90
2022-12-24T13:01:26.035Z,13.18
2022-12-24T13:02:56.469Z,14.55
2022-12-24T13:04:30.626Z,14.30
2022-12-24T13:05:39.355Z,15.35
2022-12-24T13:06:51.222Z,14.05
2022-12-24T13:08:07.352Z,14.25
2022-12-24T13:09:36.070Z,14.27